createdAt,value
2022-11-17T00:00:09.210Z,5.50
2022-11-17T00:02:39.022Z,5.50
2022-11-17T00:05:07.493Z,5.50
2022-11-17T00:07:35.924Z,5.40
2022-11-17T00:10:04.619Z,5.40
2022-11-17T00:12:58.637Z,5.40
2022-11-17T00:15:27.798Z,5.40
2022-11-17T00:18:11.282Z,5.40
2022-11-17T00:20:57.266Z,5.40
2022-11-17T00:23:47.311Z,5.40
2022-11-17T00:26:16.897Z,5.30
2022-11-17T00:28:45.363Z,5.30
2022-11-17T00:31:31.395Z,5.30
2022-11-17T00:34:07.318Z,5.30
2022-11-17T00:36:37.231Z,5.30
2022-11-17T00:39:05.891Z,5.20
2022-11-17T00:41:34.291Z,5.20
2022-11-17T00:44:02.713Z,5.20
2022-11-17T00:46:31.137Z,5.20
2022-11-17T00:49:00.994Z,5.20
2022-11-17T00:51:30.011Z,5.20
2022-11-17T00:53:58.691Z,5.20
2022-11-17T00:56:27.123Z,5.20
2022-11-17T00:58:56.580Z,5.20
2022-11-17T01:01:25.720Z,5.20
2022-11-17T01:04:03.653Z,5.20
2022-11-17T01:06:34.172Z,5.20
2022-11-17T01:09:02.634Z,5.20
2022-11-17T01:11:32.038Z,5.20
2022-11-17T01:14:01.986Z,5.20
2022-11-17T01:16:31.111Z,5.20
2022-11-17T01:19:00.769Z,5.10
2022-11-17T01:21:30.112Z,5.10
2022-11-17T01:24:03.608Z,5.10
2022-11-17T01:26:33.148Z,5.10
2022-11-17T01:29:01.989Z,5.20
2022-11-17T01:31:31.102Z,5.10
2022-11-17T01:33:59.813Z,5.20
2022-11-17T01:36:29.170Z,5.10
2022-11-17T01:38:58.221Z,5.10
2022-11-17T01:41:29.070Z,5.10
2022-11-17T01:43:58.283Z,5.10
2022-11-17T01:46:29.007Z,5.10
2022-11-17T01:49:02.020Z,5.00
2022-11-17T01:51:31.487Z,5.10
2022-11-17T01:54:00.395Z,5.10
2022-11-17T01:56:31.774Z,5.00
2022-11-17T01:59:03.268Z,5.00
2022-11-17T02:01:31.801Z,5.00
2022-11-17T02:04:00.199Z,5.00
2022-11-17T02:06:31.196Z,5.00
2022-11-17T02:09:00.102Z,5.00
2022-11-17T02:11:36.266Z,5.00
2022-11-17T02:14:05.981Z,5.00
2022-11-17T02:16:34.261Z,5.00
2022-11-17T02:19:02.722Z,5.00
2022-11-17T02:21:46.204Z,5.00
2022-11-17T02:24:24.204Z,5.00
2022-11-17T02:27:13.337Z,5.00
2022-11-17T02:29:44.950Z,5.00
2022-11-17T02:32:17.001Z,5.00
2022-11-17T02:34:48.545Z,5.10
2022-11-17T02:37:20.304Z,5.00
2022-11-17T02:39:51.507Z,5.10
2022-11-17T02:42:44.253Z,5.10
2022-11-17T02:45:34.589Z,5.10
2022-11-17T02:48:03.710Z,5.10
2022-11-17T02:50:32.099Z,5.10
2022-11-17T02:53:00.712Z,5.00
2022-11-17T02:55:33.425Z,5.10
2022-11-17T02:58:01.941Z,5.10
2022-11-17T03:00:33.338Z,5.10
2022-11-17T03:03:19.316Z,5.10
2022-11-17T03:05:53.854Z,5.10
2022-11-17T03:08:31.613Z,5.10
2022-11-17T03:11:03.151Z,5.10
2022-11-17T03:13:36.011Z,5.10
2022-11-17T03:16:11.621Z,5.10
2022-11-17T03:18:42.951Z,5.10
2022-11-17T03:21:12.579Z,5.10
2022-11-17T03:23:44.322Z,5.10
2022-11-17T03:26:14.372Z,5.10
2022-11-17T03:28:43.424Z,5.10
2022-11-17T03:31:14.661Z,5.10
2022-11-17T03:33:44.451Z,5.10
2022-11-17T03:36:14.597Z,5.00
2022-11-17T03:38:46.502Z,5.00
2022-11-17T03:41:15.791Z,5.00
2022-11-17T03:43:44.941Z,5.00
2022-11-17T03:46:17.113Z,5.00
2022-11-17T03:48:46.392Z,5.00
2022-11-17T03:51:17.416Z,5.00
2022-11-17T03:53:46.609Z,5.00
2022-11-17T03:56:21.338Z,5.00
2022-11-17T03:58:52.359Z,5.00
2022-11-17T04:01:22.538Z,5.00
2022-11-17T04:03:50.999Z,5.00
2022-11-17T04:06:19.298Z,5.00
2022-11-17T04:08:48.292Z,5.00
2022-11-17T04:11:36.731Z,5.00
2022-11-17T04:14:22.583Z,5.00
2022-11-17T04:16:52.769Z,4.90
2022-11-17T04:19:21.296Z,4.90
2022-11-17T04:21:49.817Z,4.90
2022-11-17T04:24:18.481Z,4.90
2022-11-17T04:27:04.539Z,4.90
2022-11-17T04:29:34.408Z,4.90
2022-11-17T04:32:04.270Z,4.90
2022-11-17T04:34:32.670Z,4.90
2022-11-17T04:37:06.995Z,4.80
2022-11-17T04:39:39.390Z,4.80
2022-11-17T04:42:06.670Z,4.80
2022-11-17T04:44:35.131Z,4.80
2022-11-17T04:47:06.382Z,4.80
2022-11-17T04:49:34.705Z,4.80
2022-11-17T04:52:03.298Z,4.80
2022-11-17T04:54:31.728Z,4.80
2022-11-17T04:57:00.092Z,4.80
2022-11-17T04:59:28.520Z,4.80
2022-11-17T05:01:59.936Z,4.80
2022-11-17T05:04:51.194Z,4.80
2022-11-17T05:07:19.630Z,4.80
2022-11-17T05:09:48.003Z,4.80
2022-11-17T05:12:33.793Z,4.80
2022-11-17T05:15:02.128Z,4.80
2022-11-17T05:17:29.346Z,4.70
2022-11-17T05:19:59.971Z,4.70
2022-11-17T05:22:45.634Z,4.70
2022-11-17T05:25:14.025Z,4.70
2022-11-17T05:27:42.323Z,4.80
2022-11-17T05:30:11.362Z,4.70
2022-11-17T05:32:39.921Z,4.70
2022-11-17T05:35:10.393Z,4.60
2022-11-17T05:37:38.639Z,4.70
2022-11-17T05:40:07.630Z,4.60
2022-11-17T05:42:36.250Z,4.60
2022-11-17T05:45:04.619Z,4.60
2022-11-17T05:47:32.961Z,4.60
2022-11-17T05:50:01.241Z,4.60
2022-11-17T05:52:30.969Z,4.60
2022-11-17T05:54:59.294Z,4.50
2022-11-17T05:57:30.269Z,4.60
2022-11-17T06:00:01.912Z,4.50
2022-11-17T06:02:32.604Z,4.60
2022-11-17T06:05:00.862Z,4.60
2022-11-17T06:07:30.638Z,4.80
2022-11-17T06:09:59.083Z,4.50
2022-11-17T06:12:27.595Z,4.50
2022-11-17T06:14:55.964Z,4.50
2022-11-17T06:17:25.493Z,4.50
2022-11-17T06:19:55.505Z,4.50
2022-11-17T06:22:23.979Z,4.50
2022-11-17T06:24:53.834Z,4.50
2022-11-17T06:27:22.228Z,4.40
2022-11-17T06:29:51.065Z,4.50
2022-11-17T06:32:20.576Z,4.50
2022-11-17T06:34:55.300Z,4.50
2022-11-17T06:37:24.900Z,4.50
2022-11-17T06:39:54.730Z,4.50
2022-11-17T06:42:44.218Z,4.50
2022-11-17T06:45:13.017Z,4.50
2022-11-17T06:47:41.377Z,4.40
2022-11-17T06:50:10.265Z,4.50
2022-11-17T06:52:38.900Z,4.40
2022-11-17T06:55:09.556Z,4.40
2022-11-17T06:57:37.978Z,4.50
2022-11-17T07:00:07.415Z,4.50
2022-11-17T07:02:36.877Z,4.50
2022-11-17T07:05:05.333Z,4.50
2022-11-17T07:07:33.854Z,4.50
2022-11-17T07:10:02.279Z,4.50
2022-11-17T07:12:32.108Z,4.60
2022-11-17T07:15:00.495Z,4.60
2022-11-17T07:17:29.773Z,4.60
2022-11-17T07:19:58.219Z,4.60
2022-11-17T07:22:26.660Z,4.60
2022-11-17T07:24:55.028Z,4.60
2022-11-17T07:27:23.664Z,4.70
2022-11-17T07:29:53.457Z,4.70
2022-11-17T07:32:22.233Z,4.70
2022-11-17T07:34:50.609Z,4.80
2022-11-17T07:37:19.375Z,4.80
2022-11-17T07:39:47.687Z,4.80
2022-11-17T07:42:16.045Z,4.90
2022-11-17T07:44:44.409Z,4.90
2022-11-17T07:47:14.228Z,4.90
2022-11-17T07:49:42.627Z,4.90
2022-11-17T07:52:11.000Z,5.00
2022-11-17T07:54:39.645Z,5.00
2022-11-17T07:57:08.059Z,5.00
2022-11-17T07:59:36.465Z,5.00
2022-11-17T08:02:05.216Z,5.00
2022-11-17T08:04:34.995Z,5.00
2022-11-17T08:07:03.564Z,5.00
2022-11-17T08:09:31.994Z,5.00
2022-11-17T08:12:00.682Z,5.00
2022-11-17T08:14:29.228Z,5.00
2022-11-17T08:16:57.814Z,5.00
2022-11-17T08:19:26.375Z,5.00
2022-11-17T08:21:56.163Z,5.10
2022-11-17T08:24:24.482Z,5.10
2022-11-17T08:26:53.738Z,5.10
2022-11-17T08:29:24.147Z,5.10
2022-11-17T08:31:52.485Z,5.10
2022-11-17T08:34:21.208Z,5.20
2022-11-17T08:36:49.736Z,5.20
2022-11-17T08:39:19.643Z,5.20
2022-11-17T08:41:48.026Z,5.20
2022-11-17T08:44:16.306Z,5.20
2022-11-17T08:46:44.856Z,5.20
2022-11-17T08:49:13.275Z,5.20
2022-11-17T08:51:41.665Z,5.10
2022-11-17T08:54:11.828Z,5.10
2022-11-17T08:56:41.765Z,5.10
2022-11-17T08:59:12.996Z,5.20
2022-11-17T09:01:41.433Z,5.20
2022-11-17T09:04:09.993Z,5.20
2022-11-17T09:06:38.467Z,5.20
2022-11-17T09:09:06.786Z,5.20
2022-11-17T09:11:35.177Z,5.20
2022-11-17T09:14:05.058Z,5.20
2022-11-17T09:16:33.486Z,5.30
2022-11-17T09:19:02.966Z,5.30
2022-11-17T09:21:33.964Z,5.30
2022-11-17T09:24:02.470Z,5.30
2022-11-17T09:26:30.861Z,5.40
2022-11-17T09:29:02.036Z,5.40
2022-11-17T09:31:31.962Z,5.40
2022-11-17T09:34:04.850Z,5.40
2022-11-17T09:36:34.724Z,5.30
2022-11-17T09:39:03.085Z,5.30
2022-11-17T09:41:34.795Z,5.30
2022-11-17T09:44:13.864Z,5.30
2022-11-17T09:46:57.457Z,5.30
2022-11-17T09:49:38.078Z,5.30
2022-11-17T09:52:12.258Z,5.40
2022-11-17T09:54:43.968Z,5.30
2022-11-17T09:57:18.049Z,5.40
2022-11-17T09:59:46.340Z,5.40
2022-11-17T10:02:16.286Z,5.40
2022-11-17T10:04:45.171Z,5.40
2022-11-17T10:07:13.590Z,5.50
2022-11-17T10:09:43.615Z,5.50
2022-11-17T10:12:16.359Z,5.50
2022-11-17T10:14:44.901Z,5.50
2022-11-17T10:17:13.779Z,5.50
2022-11-17T10:19:45.468Z,5.60
2022-11-17T10:22:20.702Z,5.60
2022-11-17T10:24:50.746Z,5.60
2022-11-17T10:27:23.150Z,5.60
2022-11-17T10:29:58.791Z,5.50
2022-11-17T10:32:27.247Z,5.50
2022-11-17T10:34:57.273Z,5.60
2022-11-17T10:37:28.283Z,5.60
2022-11-17T10:40:19.294Z,5.70
2022-11-17T10:43:01.630Z,5.80
2022-11-17T10:45:30.122Z,5.60
2022-11-17T10:48:12.140Z,5.60
2022-11-17T10:50:52.345Z,5.60
2022-11-17T10:53:30.980Z,5.60
2022-11-17T10:56:03.980Z,5.70
2022-11-17T10:58:33.123Z,5.70
2022-11-17T11:01:03.299Z,5.70
2022-11-17T11:03:32.382Z,5.70
2022-11-17T11:06:04.032Z,5.70
2022-11-17T11:08:38.079Z,5.70
2022-11-17T11:11:09.720Z,5.70
2022-11-17T11:13:42.719Z,5.70
2022-11-17T11:16:12.351Z,5.70
2022-11-17T11:18:40.782Z,5.70
2022-11-17T11:21:16.660Z,5.70
2022-11-17T11:23:47.983Z,5.70
2022-11-17T11:26:32.629Z,5.70
2022-11-17T11:29:06.414Z,5.40
2022-11-17T11:31:40.157Z,5.70
2022-11-17T11:34:16.675Z,5.70
2022-11-17T11:36:50.709Z,5.70
2022-11-17T11:39:24.039Z,5.70
2022-11-17T11:42:08.340Z,5.70
2022-11-17T11:44:47.287Z,5.70
2022-11-17T11:47:22.545Z,5.70
2022-11-17T11:49:53.154Z,5.80
2022-11-17T11:52:23.903Z,5.80
2022-11-17T11:54:56.385Z,5.80
2022-11-17T11:57:27.368Z,5.80
2022-11-17T12:00:03.552Z,5.90
2022-11-17T12:02:36.447Z,5.90
2022-11-17T12:05:09.262Z,5.90
2022-11-17T12:07:42.304Z,5.90
2022-11-17T12:10:16.057Z,5.90
2022-11-17T12:12:46.523Z,5.90
2022-11-17T12:15:29.682Z,5.90
2022-11-17T12:18:02.023Z,5.90
2022-11-17T12:20:48.866Z,6.00
2022-11-17T12:23:21.269Z,6.00
2022-11-17T12:25:54.206Z,6.00
2022-11-17T12:28:34.373Z,6.00
2022-11-17T12:31:09.419Z,6.10
2022-11-17T12:33:57.269Z,6.10
2022-11-17T12:36:30.785Z,6.10
2022-11-17T12:39:02.005Z,6.10
2022-11-17T12:41:54.918Z,6.10
2022-11-17T12:44:44.715Z,6.20
2022-11-17T12:47:16.718Z,6.20
2022-11-17T12:49:48.645Z,6.20
2022-11-17T12:52:21.940Z,6.20
2022-11-17T12:54:56.096Z,6.20
2022-11-17T12:57:26.707Z,6.20
2022-11-17T13:00:09.855Z,6.20
2022-11-17T13:02:59.040Z,6.20
2022-11-17T13:05:28.181Z,6.30
2022-11-17T13:08:15.451Z,6.30
2022-11-17T13:10:45.314Z,6.30
2022-11-17T13:13:15.137Z,6.30
2022-11-17T13:15:44.111Z,6.30
2022-11-17T13:18:18.971Z,6.30
2022-11-17T13:20:48.250Z,6.30
2022-11-17T13:23:20.589Z,6.30
2022-11-17T13:25:50.648Z,6.40
2022-11-17T13:28:29.145Z,6.40
2022-11-17T13:30:57.535Z,6.40
2022-11-17T13:33:26.113Z,6.40
2022-11-17T13:36:16.423Z,6.40
2022-11-17T13:38:48.766Z,6.40
2022-11-17T13:41:19.004Z,6.40
2022-11-17T13:43:48.183Z,6.40
2022-11-17T13:46:16.837Z,6.50
2022-11-17T13:48:46.332Z,6.40
2022-11-17T13:51:18.854Z,6.40
2022-11-17T13:53:48.272Z,6.40
2022-11-17T13:56:29.124Z,6.40
2022-11-17T13:59:00.157Z,6.40
2022-11-17T14:01:30.511Z,6.40
2022-11-17T14:04:20.021Z,6.40
2022-11-17T14:06:55.613Z,6.40
2022-11-17T14:09:24.668Z,6.50
2022-11-17T14:11:54.520Z,6.50
2022-11-17T14:14:25.019Z,6.50
2022-11-17T14:16:53.401Z,6.40
2022-11-17T14:19:26.267Z,6.40
2022-11-17T14:22:01.612Z,6.40
2022-11-17T14:24:31.621Z,6.40
2022-11-17T14:27:01.336Z,6.40
2022-11-17T14:29:29.941Z,6.40
2022-11-17T14:31:58.821Z,6.40
2022-11-17T14:34:27.033Z,6.40
2022-11-17T14:36:56.547Z,6.40
2022-11-17T14:39:25.466Z,6.40
2022-11-17T14:41:53.835Z,6.40
2022-11-17T14:44:23.894Z,6.40
2022-11-17T14:46:54.793Z,6.40
2022-11-17T14:49:23.150Z,6.40
2022-11-17T14:51:51.777Z,6.40
2022-11-17T14:54:20.638Z,6.40
2022-11-17T14:56:48.948Z,6.40
2022-11-17T14:59:20.825Z,6.40
2022-11-17T15:01:50.841Z,6.40
2022-11-17T15:04:48.757Z,6.40
2022-11-17T15:07:08.742Z,6.40
2022-11-17T15:09:37.115Z,6.40
2022-11-17T15:12:05.499Z,6.40
2022-11-17T15:14:33.918Z,6.40
2022-11-17T15:17:03.775Z,6.40
2022-11-17T15:19:32.453Z,6.30
2022-11-17T15:22:00.748Z,6.30
2022-11-17T15:24:29.439Z,6.40
2022-11-17T15:27:05.418Z,6.40
2022-11-17T15:29:33.924Z,6.30
2022-11-17T15:32:07.115Z,6.30
2022-11-17T15:34:37.995Z,6.30
2022-11-17T15:37:06.824Z,6.30
2022-11-17T15:39:35.599Z,6.30
2022-11-17T15:42:04.463Z,6.40
2022-11-17T15:44:32.903Z,6.40
2022-11-17T15:47:01.226Z,6.40
2022-11-17T15:49:31.438Z,6.40
2022-11-17T15:51:59.695Z,6.40
2022-11-17T15:54:28.373Z,6.40
2022-11-17T15:56:56.628Z,6.40
2022-11-17T15:59:26.050Z,6.40
2022-11-17T16:01:54.334Z,6.40
2022-11-17T16:04:22.745Z,6.40
2022-11-17T16:06:52.664Z,6.40
2022-11-17T16:09:21.234Z,6.40
2022-11-17T16:11:49.591Z,6.40
2022-11-17T16:14:18.013Z,6.40
2022-11-17T16:16:48.032Z,6.50
2022-11-17T16:19:16.454Z,6.50
2022-11-17T16:21:45.042Z,6.40
2022-11-17T16:24:15.496Z,6.40
2022-11-17T16:26:44.968Z,6.40
2022-11-17T16:29:13.813Z,6.40
2022-11-17T16:31:43.770Z,6.40
2022-11-17T16:34:13.130Z,6.40
2022-11-17T16:36:42.522Z,6.40
2022-11-17T16:39:11.864Z,6.40
2022-11-17T16:41:43.020Z,6.40
2022-11-17T16:44:12.753Z,6.40
2022-11-17T16:46:43.259Z,6.40
2022-11-17T16:49:12.731Z,6.40
2022-11-17T16:51:41.651Z,6.40
2022-11-17T16:54:13.848Z,6.40
2022-11-17T16:56:43.840Z,6.40
2022-11-17T16:59:12.381Z,6.40
2022-11-17T17:01:41.176Z,6.40
2022-11-17T17:04:10.212Z,6.40
2022-11-17T17:06:40.546Z,6.40
2022-11-17T17:09:09.988Z,6.40
2022-11-17T17:11:38.264Z,6.40
2022-11-17T17:14:08.998Z,6.40
2022-11-17T17:16:38.148Z,6.40
2022-11-17T17:19:08.110Z,6.40
2022-11-17T17:21:36.888Z,6.40
2022-11-17T17:24:05.972Z,6.30
2022-11-17T17:26:34.900Z,6.30
2022-11-17T17:29:03.710Z,6.30
2022-11-17T17:31:34.378Z,6.40
2022-11-17T17:34:02.964Z,6.30
2022-11-17T17:36:32.051Z,6.30
2022-11-17T17:39:02.088Z,6.40
2022-11-17T17:41:31.809Z,6.30
2022-11-17T17:44:00.902Z,6.30
2022-11-17T17:46:30.933Z,6.40
2022-11-17T17:49:00.778Z,6.40
2022-11-17T17:51:29.769Z,6.40
2022-11-17T17:54:00.973Z,6.40
2022-11-17T17:56:30.590Z,6.40
2022-11-17T17:58:59.480Z,6.50
2022-11-17T18:01:28.859Z,6.50
2022-11-17T18:04:01.539Z,6.50
2022-11-17T18:06:32.087Z,6.50
2022-11-17T18:09:00.417Z,6.50
2022-11-17T18:11:28.668Z,6.50
2022-11-17T18:13:57.038Z,6.50
2022-11-17T18:16:25.932Z,6.50
2022-11-17T18:18:57.524Z,6.40
2022-11-17T18:21:25.873Z,6.40
2022-11-17T18:23:55.867Z,6.40
2022-11-17T18:26:25.213Z,6.40
2022-11-17T18:28:54.474Z,6.40
2022-11-17T18:31:24.205Z,6.40
2022-11-17T18:33:53.623Z,6.40
2022-11-17T18:36:22.506Z,6.40
2022-11-17T18:38:51.153Z,6.40
2022-11-17T18:41:21.881Z,6.40
2022-11-17T18:43:50.633Z,6.30
2022-11-17T18:46:19.807Z,6.40
2022-11-17T18:48:49.177Z,6.40
2022-11-17T18:51:19.864Z,6.40
2022-11-17T18:53:49.275Z,6.30
2022-11-17T18:56:19.591Z,6.40
2022-11-17T18:58:49.716Z,6.40
2022-11-17T19:01:18.790Z,6.40
2022-11-17T19:03:48.594Z,6.40
2022-11-17T19:06:18.141Z,6.40
2022-11-17T19:08:47.455Z,6.40
2022-11-17T19:11:17.152Z,6.40
2022-11-17T19:13:46.493Z,6.40
2022-11-17T19:16:17.157Z,6.50
2022-11-17T19:18:46.231Z,6.50
2022-11-17T19:21:15.828Z,6.40
2022-11-17T19:23:50.715Z,6.50
2022-11-17T19:26:20.702Z,6.40
2022-11-17T19:28:49.244Z,6.40
2022-11-17T19:31:20.709Z,6.40
2022-11-17T19:33:49.371Z,6.40
2022-11-17T19:36:18.901Z,6.40
2022-11-17T19:38:49.010Z,6.40
2022-11-17T19:41:19.307Z,6.40
2022-11-17T19:43:47.647Z,6.40
2022-11-17T19:46:16.826Z,6.40
2022-11-17T19:48:46.726Z,6.40
2022-11-17T19:51:16.682Z,6.40
2022-11-17T19:53:44.942Z,6.30
2022-11-17T19:56:13.468Z,6.30
2022-11-17T19:58:42.969Z,6.40
2022-11-17T20:01:12.481Z,6.30
2022-11-17T20:03:41.260Z,6.30
2022-11-17T20:06:11.687Z,6.40
2022-11-17T20:08:40.133Z,6.40
2022-11-17T20:11:09.393Z,6.30
2022-11-17T20:13:38.228Z,6.30
2022-11-17T20:16:11.675Z,6.30
2022-11-17T20:18:41.243Z,6.50
2022-11-17T20:21:11.712Z,6.30
2022-11-17T20:23:40.131Z,6.30
2022-11-17T20:26:09.752Z,6.30
2022-11-17T20:28:39.156Z,6.30
2022-11-17T20:31:10.053Z,6.30
2022-11-17T20:33:38.620Z,6.30
2022-11-17T20:36:07.813Z,6.40
2022-11-17T20:38:38.708Z,6.40
2022-11-17T20:41:07.241Z,6.40
2022-11-17T20:43:36.171Z,6.40
2022-11-17T20:46:05.066Z,6.40
2022-11-17T20:48:35.451Z,6.40
2022-11-17T20:51:04.845Z,6.40
2022-11-17T20:53:33.447Z,6.30
2022-11-17T20:56:04.725Z,6.30
2022-11-17T20:58:33.443Z,6.30
2022-11-17T21:01:07.564Z,6.30
2022-11-17T21:03:36.049Z,6.30
2022-11-17T21:06:04.854Z,6.20
2022-11-17T21:08:33.869Z,6.30
2022-11-17T21:11:04.415Z,6.30
2022-11-17T21:13:33.630Z,6.20
2022-11-17T21:16:09.162Z,6.20
2022-11-17T21:18:38.113Z,6.20
2022-11-17T21:21:09.286Z,6.20
2022-11-17T21:23:38.935Z,6.20
2022-11-17T21:26:09.368Z,6.20
2022-11-17T21:28:38.442Z,6.20
2022-11-17T21:31:10.390Z,6.20
2022-11-17T21:33:38.951Z,6.20
2022-11-17T21:36:08.504Z,6.20
2022-11-17T21:38:37.075Z,6.20
2022-11-17T21:41:05.615Z,6.20
2022-11-17T21:43:36.979Z,6.20
2022-11-17T21:46:06.906Z,6.20
2022-11-17T21:48:36.660Z,6.20
2022-11-17T21:51:05.559Z,6.20
2022-11-17T21:53:34.004Z,6.20
2022-11-17T21:56:02.628Z,6.20
2022-11-17T21:58:31.120Z,6.30
2022-11-17T22:01:07.084Z,6.30
2022-11-17T22:03:35.577Z,6.30
2022-11-17T22:06:07.848Z,6.30
2022-11-17T22:08:39.064Z,6.30
2022-11-17T22:11:08.354Z,6.30
2022-11-17T22:13:36.774Z,6.30
2022-11-17T22:16:09.265Z,6.30
2022-11-17T22:18:37.737Z,6.30
2022-11-17T22:21:06.893Z,6.30
2022-11-17T22:23:37.516Z,6.20
2022-11-17T22:26:06.591Z,6.20
2022-11-17T22:28:34.916Z,6.10
2022-11-17T22:31:07.806Z,6.10
2022-11-17T22:33:36.456Z,6.10
2022-11-17T22:36:05.945Z,6.10
2022-11-17T22:38:34.357Z,6.00
2022-11-17T22:41:04.332Z,6.00
2022-11-17T22:43:33.419Z,5.90
2022-11-17T22:46:02.720Z,5.80
2022-11-17T22:48:33.761Z,5.80
2022-11-17T22:51:03.427Z,5.80
2022-11-17T22:53:33.220Z,5.80
2022-11-17T22:56:02.779Z,5.70
2022-11-17T22:58:31.545Z,5.80
2022-11-17T23:01:04.295Z,5.70
2022-11-17T23:03:34.274Z,5.70
2022-11-17T23:06:03.723Z,5.70
2022-11-17T23:08:32.263Z,5.70
2022-11-17T23:11:29.479Z,5.70
2022-11-17T23:13:51.010Z,5.70
2022-11-17T23:16:19.853Z,5.70
2022-11-17T23:18:53.304Z,5.70
2022-11-17T23:21:22.577Z,5.70
2022-11-17T23:23:51.268Z,5.70
2022-11-17T23:26:22.602Z,5.70
2022-11-17T23:28:51.445Z,5.70
2022-11-17T23:31:19.701Z,5.70
2022-11-17T23:33:49.327Z,5.70
2022-11-17T23:36:20.041Z,5.70
2022-11-17T23:38:48.802Z,5.70
2022-11-17T23:41:17.801Z,5.70
2022-11-17T23:43:48.872Z,5.80
2022-11-17T23:46:19.125Z,5.70
2022-11-17T23:48:47.403Z,5.70
2022-11-17T23:51:18.061Z,5.70
2022-11-17T23:53:46.520Z,5.70
2022-11-17T23:56:15.502Z,5.70
2022-11-17T23:58:44.324Z,5.70
